Great Challenger — VRRC8 — position and weather

sailwx.info

Track history (hours):
 
Tides and Currents Weather Stations Pressure Air Temp Water Temp Dewpoint Dewpoint Depression Visibility Wind Speed Wind Dir Waves Ship Positions

Great Challenger

Last reported at 2018-Jul-10 03:37 UTC. Time now 2018-Jul-17 01:52 UTC.
Position N 22°35' E 119°32'.

Length 289 m; draft 17.9 m.

Type: Cargo ship. MMSI: 477121900.

Date/timePositionNaut miles runAvg speedWind from/ knotsBaromVisibWave heightAir tempDewpointWater temp
2018-Jul-10 03:37N 22°35' E 119°32'514.1
2018-Jul-10 03:15N 22°39' E 119°35'414.3
2018-Jul-10 02:59N 22°43' E 119°37'814.7
2018-Jul-10 02:28N 22°50' E 119°40'714.8
2018-Jul-10 01:59N 22°56' E 119°43'  
2018-Jul-06 23:37N 38°23' E 121°17'315.1
2018-Jul-06 23:24N 38°24' E 121°13'614.7
2018-Jul-06 23:00N 38°27' E 121°06'714.4
2018-Jul-06 22:30N 38°31' E 120°58'814.7
2018-Jul-06 21:58N 38°34' E 120°49'1014.8
2018-Jul-06 21:17N 38°36' E 120°37'414.6
2018-Jul-06 21:00N 38°38' E 120°32'815.1
2018-Jul-06 20:27N 38°39' E 120°21'  
2018-Jul-04 10:22N 38°50' E 118°15'0 0.0
2018-Jul-04 09:58N 38°50' E 118°15'0 0.1
2018-Jul-04 09:25N 38°50' E 118°15'0 0.1
2018-Jul-04 08:46N 38°50' E 118°15'0 0.2
2018-Jul-04 08:28N 38°50' E 118°15'0 0.0
2018-Jul-04 07:52N 38°50' E 118°15'0 0.1
2018-Jul-04 07:25N 38°50' E 118°15'0 0.1
2018-Jul-04 06:52N 38°50' E 118°15'0 0.1
2018-Jul-04 06:25N 38°49' E 118°15'0 0.3
2018-Jul-04 05:19N 38°49' E 118°15'0 0.1
2018-Jul-04 04:58N 38°49' E 118°15'103 3.1
2018-Jul-02 19:18N 38°39' E 120°27'5310.8
2018-Jul-02 14:20N 38°28' E 121°34'410.6
2018-Jul-02 14:00N 38°28' E 121°38'510.6
2018-Jul-02 13:30N 38°27' E 121°45'510.7
2018-Jul-02 13:00N 38°26' E 121°52'510.8
2018-Jul-02 12:30N 38°25' E 121°58'810.8
2018-Jul-02 11:47N 38°24' E 122°08'510.7
2018-Jul-02 11:16N 38°24' E 122°15'  
Track history (hours):
 
Tides and Currents Weather Stations Pressure Air Temp Water Temp Dewpoint Dewpoint Depression Visibility Wind Speed Wind Dir Waves Ship Positions

Great Challenger

Last reported at 2018-Jul-10 03:37 UTC. Time now 2018-Jul-17 01:52 UTC.
Position N 22°35' E 119°32'.

Length 289 m; draft 17.9 m.

Type: Cargo ship. MMSI: 477121900.

Date/timePositionNaut miles runAvg speedWind from/ knotsBaromVisibWave heightAir tempDewpointWater temp
2018-Jul-10 03:37N 22°35' E 119°32'514.1
2018-Jul-10 03:15N 22°39' E 119°35'414.3
2018-Jul-10 02:59N 22°43' E 119°37'814.7
2018-Jul-10 02:28N 22°50' E 119°40'714.8
2018-Jul-10 01:59N 22°56' E 119°43'  
2018-Jul-06 23:37N 38°23' E 121°17'315.1
2018-Jul-06 23:24N 38°24' E 121°13'614.7
2018-Jul-06 23:00N 38°27' E 121°06'714.4
2018-Jul-06 22:30N 38°31' E 120°58'814.7
2018-Jul-06 21:58N 38°34' E 120°49'1014.8
2018-Jul-06 21:17N 38°36' E 120°37'414.6
2018-Jul-06 21:00N 38°38' E 120°32'815.1
2018-Jul-06 20:27N 38°39' E 120°21'  
2018-Jul-04 10:22N 38°50' E 118°15'0 0.0
2018-Jul-04 09:58N 38°50' E 118°15'0 0.1
2018-Jul-04 09:25N 38°50' E 118°15'0 0.1
2018-Jul-04 08:46N 38°50' E 118°15'0 0.2
2018-Jul-04 08:28N 38°50' E 118°15'0 0.0
2018-Jul-04 07:52N 38°50' E 118°15'0 0.1
2018-Jul-04 07:25N 38°50' E 118°15'0 0.1
2018-Jul-04 06:52N 38°50' E 118°15'0 0.1
2018-Jul-04 06:25N 38°49' E 118°15'0 0.3
2018-Jul-04 05:19N 38°49' E 118°15'0 0.1
2018-Jul-04 04:58N 38°49' E 118°15'103 3.1
2018-Jul-02 19:18N 38°39' E 120°27'5310.8
2018-Jul-02 14:20N 38°28' E 121°34'410.6
2018-Jul-02 14:00N 38°28' E 121°38'510.6
2018-Jul-02 13:30N 38°27' E 121°45'510.7
2018-Jul-02 13:00N 38°26' E 121°52'510.8
2018-Jul-02 12:30N 38°25' E 121°58'810.8
2018-Jul-02 11:47N 38°24' E 122°08'510.7
2018-Jul-02 11:16N 38°24' E 122°15'  

Dump ship's entire track history